Time;durP1;ratioP1;P1;durP2;ratioP2;P2;SDS_P1;SDS_P2;PMS_P1;PMS_P2;Temp;Humidity;BMP_temperature;BMP_pressure;BME280_temperature;BME280_humidity;BME280_pressure;Samples;Min_cycle;Max_cycle;Signal;HPM_P1;HPM_P2
2022/08/01 00:02:24;;;;;;;;;;;;;;;27.99;64.31;100865.50;4992641;28;19921;-89
2022/08/01 00:04:50;;;;;;;;;;;;;;;27.98;64.56;100863.69;4975451;28;19914;-90
2022/08/01 00:07:15;;;;;;;;;;;;;;;28.05;64.13;100856.47;4975294;28;19914;-88
2022/08/01 00:09:41;;;;;;;;;;;;;;;28.01;64.07;100859.16;4955994;28;19914;-90
2022/08/01 00:12:06;;;;;;;;;;;;;;;28.03;64.26;100851.09;4958903;28;19968;-89
2022/08/01 00:14:31;;;;;;;;;;;;;;;28.00;64.12;100857.41;4951323;28;19929;-90
2022/08/01 00:16:57;;;;;;;;;;;;;;;28.00;64.30;100857.41;4969329;28;19918;-89
2022/08/01 00:19:23;;;;;;;;;;;;;;;28.01;64.24;100852.94;4992640;28;20435;-89
2022/08/01 00:21:48;;;;;;;;;;;;;;;27.97;64.31;100849.41;4947412;28;19921;-89
2022/08/01 00:24:15;;;;;;;;;;;;;;;27.99;64.18;100847.56;4955607;28;20375;-89
2022/08/01 00:26:41;;;;;;;;;;;;;;;27.97;64.33;100843.16;4955921;28;20008;-89
2022/08/01 00:29:06;;;;;;;;;;;;;;;27.99;64.28;100841.34;4968009;28;19953;-89
2022/08/01 00:31:32;;;;;;;;;;;;;;;27.97;64.41;100832.41;4975314;28;19972;-90
2022/08/01 00:33:57;;;;;;;;;;;;;;;28.00;64.33;100832.34;4975385;28;19918;-90
2022/08/01 00:36:24;;;;;;;;;;;;;;;28.00;64.52;100835.03;4975299;28;19914;-90
2022/08/01 00:38:49;;;;;;;;;;;;;;;27.98;64.55;100832.41;4955812;28;19996;-89
2022/08/01 00:41:16;;;;;;;;;;;;;;;27.99;64.34;100830.59;4969791;28;19957;-89
2022/08/01 00:43:41;;;;;;;;;;;;;;;27.99;64.27;100827.91;4975497;28;20386;-89
2022/08/01 00:46:07;;;;;;;;;;;;;;;27.99;64.26;100823.41;4959049;28;20391;-90
2022/08/01 00:48:33;;;;;;;;;;;;;;;27.98;64.17;100831.47;4952324;28;19920;-89
2022/08/01 00:51:01;;;;;;;;;;;;;;;27.99;64.00;100828.78;4951504;28;20199;-87
2022/08/01 00:53:27;;;;;;;;;;;;;;;27.98;64.02;100828.81;4969610;28;19969;-89
2022/08/01 00:55:54;;;;;;;;;;;;;;;27.97;64.31;100827.03;4955274;28;19914;-89
2022/08/01 00:58:20;;;;;;;;;;;;;;;27.98;64.31;100829.72;4968759;28;19914;-89
2022/08/01 01:00:47;;;;;;;;;;;;;;;27.95;64.08;100824.38;4948277;28;19914;-88
2022/08/01 01:03:13;;;;;;;;;;;;;;;27.95;64.23;100831.56;4940346;28;19918;-89
2022/08/01 01:05:45;;;;;;;;;;;;;;;27.90;64.40;100820.91;4957941;28;19914;-90
2022/08/01 01:08:14;;;;;;;;;;;;;;;27.90;64.40;100818.22;4957918;28;20516;-90
2022/08/01 01:10:55;;;;;;;;;;;;;;;27.92;64.11;100821.75;4938851;29;20432;-89
2022/08/01 01:13:34;;;;;;;;;;;;;;;27.89;64.23;100829.84;4944769;28;20004;-90
2022/08/01 01:16:02;;;;;;;;;;;;;;;27.89;64.16;100823.59;4958132;28;20415;-90
2022/08/01 01:18:33;;;;;;;;;;;;;;;27.89;64.23;100812.88;4957952;28;19918;-89
2022/08/01 01:21:13;;;;;;;;;;;;;;;27.85;64.13;100806.63;4938749;29;19980;-88
2022/08/01 01:23:44;;;;;;;;;;;;;;;27.84;64.06;100817.41;4945198;28;19922;-89
2022/08/01 01:26:24;;;;;;;;;;;;;;;27.85;64.15;100808.44;4938629;29;19918;-89
2022/08/01 01:29:08;;;;;;;;;;;;;;;27.81;63.58;100810.25;4962804;28;19914;-87
2022/08/01 01:31:41;;;;;;;;;;;;;;;27.78;63.45;100813.88;4974630;28;19946;-89
2022/08/01 01:34:06;;;;;;;;;;;;;;;27.81;63.78;100800.44;4957450;28;19918;-88
2022/08/01 01:36:32;;;;;;;;;;;;;;;27.78;63.33;100803.16;4939049;28;19918;-87
2022/08/01 01:38:58;;;;;;;;;;;;;;;27.78;63.12;100800.47;4938520;29;19961;-89
2022/08/01 01:41:23;;;;;;;;;;;;;;;27.76;62.82;100804.97;4941493;28;19949;-87
2022/08/01 01:43:49;;;;;;;;;;;;;;;27.72;62.62;100799.69;4937992;29;20375;-89
2022/08/01 01:46:15;;;;;;;;;;;;;;;27.70;62.93;100799.72;4941222;28;20363;-88
2022/08/01 01:48:41;;;;;;;;;;;;;;;27.70;62.84;100807.75;4974540;28;19914;-90
2022/08/01 01:51:06;;;;;;;;;;;;;;;27.70;62.05;100806.88;4868964;28;2194702;-88
2022/08/01 01:53:33;;;;;;;;;;;;;;;27.69;61.69;100806.00;4955497;28;20417;-88
2022/08/01 01:55:58;;;;;;;;;;;;;;;27.68;61.80;100804.22;4958020;28;20427;-87
2022/08/01 01:58:25;;;;;;;;;;;;;;;27.66;61.87;100802.47;4974444;28;20008;-89
2022/08/01 02:00:51;;;;;;;;;;;;;;;27.65;61.65;100801.59;4974215;28;20384;-89
2022/08/01 02:03:17;;;;;;;;;;;;;;;27.67;61.74;100809.63;4990579;28;20057;-88
2022/08/01 02:05:42;;;;;;;;;;;;;;;27.64;61.38;100810.53;4976646;28;20369;-90
2022/08/01 02:08:08;;;;;;;;;;;;;;;27.65;61.44;100801.59;4977604;28;20465;-89
2022/08/01 02:10:35;;;;;;;;;;;;;;;27.63;61.30;100802.53;4955884;28;19915;-89
2022/08/01 02:13:02;;;;;;;;;;;;;;;27.63;61.29;100799.84;4974757;28;20384;-87
2022/08/01 02:15:29;;;;;;;;;;;;;;;27.65;61.32;100798.91;4958118;28;19914;-89
2022/08/01 02:17:55;;;;;;;;;;;;;;;27.64;61.11;100798.94;4974090;28;19914;-87
2022/08/01 02:20:20;;;;;;;;;;;;;;;27.64;61.27;100805.16;4976237;28;19976;-88
2022/08/01 02:22:46;;;;;;;;;;;;;;;27.60;61.16;100795.41;4952704;28;20304;-87
2022/08/01 02:25:31;;;;;;;;;;;;;;;27.58;60.58;100790.06;4971643;28;20376;-88
2022/08/01 02:28:05;;;;;;;;;;;;;;;27.58;60.82;100791.84;4976098;28;19921;-88
2022/08/01 02:30:32;;;;;;;;;;;;;;;27.58;61.03;100784.72;4976723;28;20402;-87
2022/08/01 02:33:09;;;;;;;;;;;;;;;27.56;60.56;100789.22;4960621;28;19918;-88
2022/08/01 02:35:36;;;;;;;;;;;;;;;27.62;60.59;100796.25;4976667;28;19914;-87
2022/08/01 02:38:03;;;;;;;;;;;;;;;27.58;60.44;100794.53;4977193;28;19929;-89
2022/08/01 02:40:30;;;;;;;;;;;;;;;27.57;60.40;100790.09;4976515;28;19914;-88
2022/08/01 02:42:55;;;;;;;;;;;;;;;27.56;60.53;100789.22;4976464;28;19913;-89
2022/08/01 02:45:22;;;;;;;;;;;;;;;27.55;60.35;100789.22;4960566;28;20300;-90
2022/08/01 02:47:48;;;;;;;;;;;;;;;27.53;59.92;100786.56;4976553;28;20391;-89
2022/08/01 02:50:13;;;;;;;;;;;;;;;27.56;60.38;100778.50;4976678;28;19914;-88
2022/08/01 02:52:39;;;;;;;;;;;;;;;27.55;60.06;100781.19;4976464;28;19921;-88
2022/08/01 02:55:04;;;;;;;;;;;;;;;27.53;59.91;100777.63;4942014;28;19918;-89
2022/08/01 02:57:30;;;;;;;;;;;;;;;27.50;60.27;100781.25;4956987;28;19920;-89
2022/08/01 02:59:55;;;;;;;;;;;;;;;27.52;59.91;100787.50;4943175;28;19914;-88
2022/08/01 03:02:21;;;;;;;;;;;;;;;27.51;59.58;100788.38;4976382;28;19921;-89
2022/08/01 03:04:46;;;;;;;;;;;;;;;27.47;60.11;100783.97;4976141;28;19914;-87
2022/08/01 03:07:12;;;;;;;;;;;;;;;27.50;59.67;100786.63;4976166;28;19940;-87
2022/08/01 03:09:39;;;;;;;;;;;;;;;27.49;59.63;100792.88;4976092;28;19918;-89
2022/08/01 03:12:06;;;;;;;;;;;;;;;27.49;59.60;100784.84;4976252;28;19918;-88
2022/08/01 03:14:33;;;;;;;;;;;;;;;27.46;59.55;100790.25;4956572;28;19965;-89
2022/08/01 03:16:58;;;;;;;;;;;;;;;27.47;59.39;100794.69;4957733;28;19918;-88
2022/08/01 03:19:24;;;;;;;;;;;;;;;27.48;59.15;100803.66;4960253;28;19914;-88
2022/08/01 03:21:50;;;;;;;;;;;;;;;27.44;60.15;100807.28;4975847;28;19972;-88
2022/08/01 03:24:15;;;;;;;;;;;;;;;27.44;59.20;100807.28;4958302;28;19914;-88
2022/08/01 03:26:43;;;;;;;;;;;;;;;27.42;58.72;100807.31;4967441;28;19921;-88
2022/08/01 03:29:10;;;;;;;;;;;;;;;27.44;58.94;100801.94;4993040;28;19992;-89
2022/08/01 03:31:36;;;;;;;;;;;;;;;27.41;58.38;100797.47;4945994;28;19918;-87
2022/08/01 03:34:02;;;;;;;;;;;;;;;27.41;58.55;100802.84;4975238;28;19921;-88
2022/08/01 03:36:28;;;;;;;;;;;;;;;27.43;57.90;100803.69;4957307;28;19918;-89
2022/08/01 03:38:56;;;;;;;;;;;;;;;27.40;58.32;100795.72;4959627;28;19913;-89
2022/08/01 03:41:22;;;;;;;;;;;;;;;27.40;57.74;100803.75;4946685;28;20299;-89
2022/08/01 03:44:10;;;;;;;;;;;;;;;27.39;57.82;100796.66;4940078;28;19914;-88
2022/08/01 03:46:40;;;;;;;;;;;;;;;27.37;58.20;100801.16;4940253;28;19914;-90
2022/08/01 03:49:08;;;;;;;;;;;;;;;27.39;58.04;100807.38;4959196;28;19929;-83
2022/08/01 03:51:34;;;;;;;;;;;;;;;27.35;58.20;100806.53;4975156;28;19928;-85
2022/08/01 03:54:01;;;;;;;;;;;;;;;27.34;57.93;100804.72;4975452;28;20004;-85
2022/08/01 03:56:26;;;;;;;;;;;;;;;27.37;57.78;100807.38;4959387;28;19914;-84
2022/08/01 03:59:13;;;;;;;;;;;;;;;27.37;57.85;100803.81;4991214;28;19997;-86
2022/08/01 04:01:54;;;;;;;;;;;;;;;27.36;57.42;100802.03;4992655;28;19937;-86
2022/08/01 04:04:53;;;;;;;;;;;;;;;27.35;57.41;100805.66;4990619;28;20008;-85
2022/08/01 04:07:26;;;;;;;;;;;;;;;27.33;57.31;100800.28;4983464;28;19933;-84
2022/08/01 04:09:55;;;;;;;;;;;;;;;27.31;57.27;100810.16;4974835;28;19914;-84
2022/08/01 04:12:21;;;;;;;;;;;;;;;27.31;56.95;100811.97;4988760;28;20319;-83
2022/08/01 04:14:46;;;;;;;;;;;;;;;27.28;57.11;100815.53;4990154;28;19922;-84
2022/08/01 04:17:13;;;;;;;;;;;;;;;27.26;57.06;100816.47;4991070;28;19917;-84
2022/08/01 04:19:38;;;;;;;;;;;;;;;27.27;57.82;100821.84;4993409;28;19949;-84
2022/08/01 04:22:04;;;;;;;;;;;;;;;27.28;57.50;100828.06;4967379;28;19913;-84
2022/08/01 04:24:29;;;;;;;;;;;;;;;27.27;57.49;100812.91;4990885;28;20000;-84
2022/08/01 04:27:13;;;;;;;;;;;;;;;27.31;57.40;100815.50;4992250;28;19914;-83
2022/08/01 04:29:38;;;;;;;;;;;;;;;27.29;57.59;100820.00;4989772;28;20303;-84
2022/08/01 04:32:06;;;;;;;;;;;;;;;27.29;57.62;100816.47;4995059;28;19913;-83
2022/08/01 04:34:34;;;;;;;;;;;;;;;27.30;57.28;100808.38;4993177;28;19953;-84
2022/08/01 04:37:01;;;;;;;;;;;;;;;27.27;57.50;100820.94;4994840;28;19914;-83
2022/08/01 04:39:28;;;;;;;;;;;;;;;27.27;57.38;100813.78;4995995;28;19957;-84
2022/08/01 04:41:56;;;;;;;;;;;;;;;27.28;57.43;100810.19;4994712;28;19913;-83
2022/08/01 04:44:23;;;;;;;;;;;;;;;27.25;57.38;100812.91;4992152;28;20005;-85
2022/08/01 04:46:49;;;;;;;;;;;;;;;27.22;57.62;100812.97;4995993;28;19914;-83
2022/08/01 04:49:16;;;;;;;;;;;;;;;27.22;57.39;100815.66;4994761;28;19920;-83
2022/08/01 04:51:51;;;;;;;;;;;;;;;27.22;57.71;100829.06;4994455;28;20477;-84
2022/08/01 04:54:16;;;;;;;;;;;;;;;27.22;57.77;100823.69;4981429;28;19918;-84
2022/08/01 04:56:45;;;;;;;;;;;;;;;27.21;57.42;100828.13;4994506;28;20358;-84
2022/08/01 05:02:01;;;;;;;;;;;;;;;27.19;57.71;100818.34;4994684;28;19976;-85
2022/08/01 05:04:26;;;;;;;;;;;;;;;27.14;57.78;100823.75;4993478;28;19920;-84
2022/08/01 05:06:54;;;;;;;;;;;;;;;27.12;58.10;100817.53;4995636;28;19918;-86
2022/08/01 05:09:21;;;;;;;;;;;;;;;27.12;58.02;100822.91;4991054;28;19968;-83
2022/08/01 05:11:46;;;;;;;;;;;;;;;27.11;58.17;100820.22;4986605;28;20422;-85
2022/08/01 05:14:12;;;;;;;;;;;;;;;27.12;57.98;100822.91;4993931;28;19921;-86
2022/08/01 05:16:41;;;;;;;;;;;;;;;27.11;58.61;100821.09;4995328;28;20355;-84
2022/08/01 05:19:13;;;;;;;;;;;;;;;27.10;59.06;100814.00;4975625;28;20348;-84
2022/08/01 05:21:47;;;;;;;;;;;;;;;27.13;58.60;100813.94;4995451;28;19914;-84
2022/08/01 05:24:18;;;;;;;;;;;;;;;27.11;58.44;100809.50;4994984;28;19917;-85
2022/08/01 05:26:46;;;;;;;;;;;;;;;27.09;58.56;100812.19;4994092;28;19914;-85
2022/08/01 05:29:11;;;;;;;;;;;;;;;27.07;58.57;100814.00;4974597;28;20388;-85
2022/08/01 05:31:46;;;;;;;;;;;;;;;27.09;58.93;100804.16;4992534;28;19920;-85
2022/08/01 05:34:11;;;;;;;;;;;;;;;27.11;58.57;100810.38;4993124;28;19929;-85
2022/08/01 05:36:37;;;;;;;;;;;;;;;27.09;58.19;100816.69;4994750;28;19918;-85
2022/08/01 05:39:03;;;;;;;;;;;;;;;27.08;59.46;100815.81;4995856;28;20507;-85
2022/08/01 05:41:42;;;;;;;;;;;;;;;27.08;58.11;100814.94;4988013;28;19921;-85
2022/08/01 05:44:08;;;;;;;;;;;;;;;27.10;59.06;100818.47;4958831;28;19914;-84
2022/08/01 05:46:34;;;;;;;;;;;;;;;27.08;58.06;100820.28;4991421;28;20375;-84
2022/08/01 05:49:00;;;;;;;;;;;;;;;27.10;58.37;100818.47;4993565;28;20445;-84
2022/08/01 05:51:25;;;;;;;;;;;;;;;27.09;58.46;100820.25;4990635;28;19929;-85
2022/08/01 05:53:51;;;;;;;;;;;;;;;27.09;58.51;100803.28;4993151;28;19933;-85
2022/08/01 05:56:20;;;;;;;;;;;;;;;27.08;58.70;100818.47;4988342;28;19969;-84
2022/08/01 05:58:46;;;;;;;;;;;;;;;27.07;58.20;100815.81;4993198;28;19914;-86
2022/08/01 06:01:26;;;;;;;;;;;;;;;27.12;58.18;100808.63;4992321;28;19952;-85
2022/08/01 06:03:54;;;;;;;;;;;;;;;27.10;58.56;100813.09;4991916;28;19914;-86
2022/08/01 06:06:20;;;;;;;;;;;;;;;27.09;57.89;100816.69;4990295;28;19918;-85
2022/08/01 06:08:49;;;;;;;;;;;;;;;27.06;58.48;100806.91;4987443;28;19937;-85
2022/08/01 06:11:14;;;;;;;;;;;;;;;27.08;57.92;100809.56;4993114;28;19920;-85
2022/08/01 06:13:55;;;;;;;;;;;;;;;27.05;58.04;100799.78;4976592;28;20307;-87
2022/08/01 06:16:24;;;;;;;;;;;;;;;27.04;57.42;100800.66;4992838;28;19914;-86
2022/08/01 06:18:50;;;;;;;;;;;;;;;27.00;58.22;100798.94;4992707;28;19913;-85
2022/08/01 06:21:15;;;;;;;;;;;;;;;27.02;58.32;100795.31;4988444;28;19925;-86
2022/08/01 06:23:42;;;;;;;;;;;;;;;27.05;58.10;100802.47;4983168;28;19918;-85
2022/08/01 06:26:07;;;;;;;;;;;;;;;27.08;57.53;100791.69;4985624;28;19924;-85
2022/08/01 06:28:32;;;;;;;;;;;;;;;27.08;58.11;100785.44;4988513;28;19961;-84
2022/08/01 06:30:59;;;;;;;;;;;;;;;27.06;57.90;100798.84;4987550;28;19984;-85
2022/08/01 06:33:24;;;;;;;;;;;;;;;27.05;57.35;100791.72;4979242;28;19918;-84
2022/08/01 06:35:54;;;;;;;;;;;;;;;27.07;57.78;100791.69;4996756;28;19920;-87
2022/08/01 06:38:20;;;;;;;;;;;;;;;27.07;58.11;100780.97;4986230;28;19925;-86
2022/08/01 06:40:45;;;;;;;;;;;;;;;27.02;56.81;100773.88;4993057;28;19918;-87
2022/08/01 06:43:12;;;;;;;;;;;;;;;27.10;57.22;100779.13;4993490;28;20388;-87
2022/08/01 06:45:38;;;;;;;;;;;;;;;27.09;57.84;100765.75;4993871;28;20398;-89
2022/08/01 06:48:04;;;;;;;;;;;;;;;27.09;57.53;100768.44;4976419;28;19924;-87
2022/08/01 06:50:36;;;;;;;;;;;;;;;27.10;57.17;100770.22;4993071;28;19913;-86
2022/08/01 06:53:01;;;;;;;;;;;;;;;27.08;56.74;100755.94;4990577;28;20020;-87
2022/08/01 06:55:27;;;;;;;;;;;;;;;27.08;56.93;100756.81;5002703;28;19976;-86
2022/08/01 06:57:53;;;;;;;;;;;;;;;27.06;56.77;100761.31;4993692;28;19976;-86
2022/08/01 07:00:22;;;;;;;;;;;;;;;27.10;57.24;100760.38;4966991;28;19961;-87
2022/08/01 07:02:47;;;;;;;;;;;;;;;27.11;56.91;100756.78;4997897;28;19945;-88
2022/08/01 07:05:13;;;;;;;;;;;;;;;27.09;57.05;100757.72;4995076;28;19925;-87
2022/08/01 07:07:43;;;;;;;;;;;;;;;27.05;56.68;100759.56;4991860;28;19918;-88
2022/08/01 07:10:10;;;;;;;;;;;;;;;27.06;57.32;100760.44;4992128;28;19918;-89
2022/08/01 07:12:37;;;;;;;;;;;;;;;27.09;56.73;100749.66;4986868;28;19940;-87
2022/08/01 07:15:07;;;;;;;;;;;;;;;27.12;57.35;100757.69;4993202;28;19917;-87
2022/08/01 07:17:35;;;;;;;;;;;;;;;27.15;57.04;100754.94;4973782;28;19919;-86
2022/08/01 07:20:01;;;;;;;;;;;;;;;27.23;56.88;100749.50;4992743;28;19918;-86
2022/08/01 07:22:26;;;;;;;;;;;;;;;27.19;56.99;100746.81;4993719;28;19929;-86
2022/08/01 07:24:52;;;;;;;;;;;;;;;27.17;56.70;100737.91;4972431;28;20358;-87
2022/08/01 07:27:17;;;;;;;;;;;;;;;27.15;56.59;100749.56;4991226;28;19914;-87
2022/08/01 07:29:43;;;;;;;;;;;;;;;27.15;57.19;100750.47;4992343;28;19966;-87
2022/08/01 07:32:08;;;;;;;;;;;;;;;27.19;56.64;100736.09;4990669;28;20338;-86
2022/08/01 07:34:34;;;;;;;;;;;;;;;27.19;57.09;100733.41;4991776;28;20318;-87
2022/08/01 07:37:00;;;;;;;;;;;;;;;27.18;56.51;100731.66;4987461;28;19918;-88
2022/08/01 07:39:25;;;;;;;;;;;;;;;27.18;56.32;100736.16;4991655;28;20318;-87
2022/08/01 07:41:50;;;;;;;;;;;;;;;27.22;56.36;100735.22;4987400;28;19914;-87
2022/08/01 07:44:16;;;;;;;;;;;;;;;27.16;56.47;100732.59;4972031;28;19948;-86
2022/08/01 07:46:41;;;;;;;;;;;;;;;27.14;56.33;100735.28;4992499;28;20001;-87
2022/08/01 07:49:07;;;;;;;;;;;;;;;27.14;55.88;100729.06;4990022;28;20457;-86
2022/08/01 07:51:33;;;;;;;;;;;;;;;27.20;56.32;100729.84;4991042;28;20426;-87
2022/08/01 07:53:58;;;;;;;;;;;;;;;27.18;55.78;100734.34;4991732;28;20327;-87
2022/08/01 07:56:29;;;;;;;;;;;;;;;27.24;56.59;100730.69;4990198;28;19921;-86
2022/08/01 07:58:55;;;;;;;;;;;;;;;27.25;56.72;100732.47;4991472;28;20001;-87
2022/08/01 08:01:23;;;;;;;;;;;;;;;27.17;57.10;100727.19;4989807;28;20351;-87
2022/08/01 08:03:49;;;;;;;;;;;;;;;27.14;56.10;100721.00;4992387;28;19941;-87
2022/08/01 08:06:14;;;;;;;;;;;;;;;27.22;56.34;100719.13;4991624;28;20380;-87
2022/08/01 08:08:40;;;;;;;;;;;;;;;27.28;55.74;100721.69;4992367;28;19976;-86
2022/08/01 08:11:05;;;;;;;;;;;;;;;27.23;55.79;100731.63;4992482;28;19917;-86
2022/08/01 08:13:31;;;;;;;;;;;;;;;27.19;56.15;100728.06;4992757;28;19917;-88
2022/08/01 08:15:58;;;;;;;;;;;;;;;27.18;56.14;100717.38;4986653;28;19937;-86
2022/08/01 08:18:26;;;;;;;;;;;;;;;27.19;55.95;100719.13;4989941;28;20016;-86
2022/08/01 08:20:51;;;;;;;;;;;;;;;27.35;55.71;100720.72;4992178;28;19914;-86
2022/08/01 08:26:01;;;;;;;;;;;;;;;27.28;55.89;100719.00;4989845;28;19968;-87
2022/08/01 08:28:26;;;;;;;;;;;;;;;27.29;56.22;100730.66;4990886;28;19921;-87
2022/08/01 08:30:54;;;;;;;;;;;;;;;27.25;55.98;100723.56;4990395;28;19981;-87
2022/08/01 08:33:20;;;;;;;;;;;;;;;27.28;55.71;100736.91;4984827;28;20374;-87
2022/08/01 08:35:47;;;;;;;;;;;;;;;27.35;56.67;100733.25;4988681;28;20008;-88
2022/08/01 08:38:12;;;;;;;;;;;;;;;27.28;56.00;100732.41;4974298;28;20286;-87
2022/08/01 08:40:38;;;;;;;;;;;;;;;27.31;55.96;100728.84;4990762;28;19914;-86
2022/08/01 08:43:06;;;;;;;;;;;;;;;27.28;55.08;100732.41;4976126;28;19925;-86
2022/08/01 08:45:36;;;;;;;;;;;;;;;27.31;56.06;100732.41;4990344;28;19936;-86
2022/08/01 08:48:01;;;;;;;;;;;;;;;27.35;55.86;100735.91;4990773;28;20370;-86
2022/08/01 08:50:30;;;;;;;;;;;;;;;27.28;55.86;100718.13;4987374;28;19915;-86
2022/08/01 08:52:56;;;;;;;;;;;;;;;27.29;56.32;100726.16;4983996;28;19929;-87
2022/08/01 08:55:21;;;;;;;;;;;;;;;27.31;56.19;100723.47;4974475;28;19925;-86
2022/08/01 08:57:47;;;;;;;;;;;;;;;27.32;55.95;100717.19;4974671;28;19914;-86
2022/08/01 09:00:13;;;;;;;;;;;;;;;27.31;55.79;100723.47;4974272;28;19939;-86
2022/08/01 09:03:15;;;;;;;;;;;;;;;27.35;55.98;100726.06;4974084;28;20009;-85
2022/08/01 09:05:44;;;;;;;;;;;;;;;27.25;55.74;100721.75;4972758;28;19918;-87
2022/08/01 09:08:09;;;;;;;;;;;;;;;27.28;56.69;100723.50;4987773;28;19972;-86
2022/08/01 09:10:34;;;;;;;;;;;;;;;27.26;56.11;100725.31;4986838;28;19917;-87
2022/08/01 09:13:10;;;;;;;;;;;;;;;27.28;55.92;100726.19;4990648;28;19984;-87
2022/08/01 09:15:50;;;;;;;;;;;;;;;27.32;55.31;100725.22;4973537;28;19921;-86
2022/08/01 09:18:31;;;;;;;;;;;;;;;27.35;55.47;100726.06;4990665;28;19921;-85
2022/08/01 09:21:37;;;;;;;;;;;;;;;27.28;55.61;100726.19;4992989;28;19921;-85
2022/08/01 09:24:13;;;;;;;;;;;;;;;27.27;54.84;100717.25;4913794;29;19987;-85
2022/08/01 09:26:39;;;;;;;;;;;;;;;27.36;55.86;100721.59;4985621;28;19913;-84
2022/08/01 09:29:05;;;;;;;;;;;;;;;27.39;55.53;100737.66;4993019;28;19925;-84
2022/08/01 09:31:39;;;;;;;;;;;;;;;27.40;55.35;100724.19;4993318;28;19925;-84
2022/08/01 09:34:04;;;;;;;;;;;;;;;27.38;55.93;100715.28;4973654;28;20012;-84
2022/08/01 09:36:48;;;;;;;;;;;;;;;27.32;54.63;100725.22;4992233;28;20016;-86
2022/08/01 09:39:14;;;;;;;;;;;;;;;27.40;55.41;100715.25;4991224;28;20456;-85
2022/08/01 09:41:39;;;;;;;;;;;;;;;27.42;55.60;100722.38;4993700;28;19918;-84
2022/08/01 09:44:04;;;;;;;;;;;;;;;27.30;55.45;100716.31;4973990;28;19968;-85
2022/08/01 09:46:30;;;;;;;;;;;;;;;27.36;55.17;100722.47;4994642;28;19914;-85
2022/08/01 09:48:56;;;;;;;;;;;;;;;27.42;55.86;100727.72;4994661;28;19913;-86
2022/08/01 09:51:38;;;;;;;;;;;;;;;27.38;55.92;100723.31;4991143;28;19926;-85
2022/08/01 09:54:05;;;;;;;;;;;;;;;27.40;55.75;100731.34;4984749;28;19925;-86
2022/08/01 09:56:42;;;;;;;;;;;;;;;27.44;55.69;100729.53;4990062;28;19914;-86
2022/08/01 09:59:07;;;;;;;;;;;;;;;27.41;54.94;100720.63;4994992;28;20406;-87
2022/08/01 10:01:44;;;;;;;;;;;;;;;27.39;55.61;100725.13;4970309;28;19919;-86
2022/08/01 10:04:10;;;;;;;;;;;;;;;27.34;55.38;100724.28;4994151;28;19980;-86
2022/08/01 10:06:36;;;;;;;;;;;;;;;27.31;54.64;100718.09;4992550;28;20362;-85
2022/08/01 10:09:02;;;;;;;;;;;;;;;27.25;54.86;100728.94;4993278;28;19945;-86
2022/08/01 10:11:28;;;;;;;;;;;;;;;27.27;55.20;100725.31;4969095;28;19922;-86
2022/08/01 10:13:53;;;;;;;;;;;;;;;27.27;55.25;100727.97;4991336;28;19984;-86
2022/08/01 10:16:19;;;;;;;;;;;;;;;27.32;54.34;100717.19;4975791;28;20012;-87
2022/08/01 10:18:44;;;;;;;;;;;;;;;27.26;54.94;100709.22;4987030;28;19921;-86
2022/08/01 10:21:10;;;;;;;;;;;;;;;27.40;54.80;100721.50;4992372;28;20060;-84
2022/08/01 10:23:36;;;;;;;;;;;;;;;27.43;54.44;100715.19;4991862;28;20406;-85
2022/08/01 10:26:05;;;;;;;;;;;;;;;27.37;54.48;100723.38;4974527;28;19917;-85
2022/08/01 10:28:31;;;;;;;;;;;;;;;27.41;54.26;100723.28;4993294;28;19914;-86
2022/08/01 10:31:01;;;;;;;;;;;;;;;27.46;54.56;100725.00;4976169;28;19918;-85
2022/08/01 10:33:27;;;;;;;;;;;;;;;27.47;54.64;100724.97;4989856;28;19973;-87
2022/08/01 10:35:52;;;;;;;;;;;;;;;27.41;53.98;100733.09;4992234;28;19922;-85
2022/08/01 10:38:18;;;;;;;;;;;;;;;27.41;54.11;100731.34;4993995;28;20012;-88
2022/08/01 10:40:44;;;;;;;;;;;;;;;27.44;54.09;100725.03;4974399;28;19968;-85
2022/08/01 10:43:14;;;;;;;;;;;;;;;27.47;54.23;100730.34;4975377;28;19957;-85
2022/08/01 10:45:40;;;;;;;;;;;;;;;27.50;54.46;100735.66;4987413;28;19921;-85
2022/08/01 10:48:05;;;;;;;;;;;;;;;27.54;53.52;100729.34;4992382;28;19960;-86
2022/08/01 10:50:37;;;;;;;;;;;;;;;27.40;52.58;100724.19;4992986;28;19948;-84
2022/08/01 10:53:21;;;;;;;;;;;;;;;27.37;54.29;100724.25;4992319;28;19922;-85
2022/08/01 10:55:47;;;;;;;;;;;;;;;27.52;54.51;100727.59;4992614;28;19925;-85
2022/08/01 10:58:12;;;;;;;;;;;;;;;27.53;53.24;100732.91;4992615;28;19914;-84
2022/08/01 11:00:37;;;;;;;;;;;;;;;27.56;54.35;100737.38;4990909;28;20009;-86
2022/08/01 11:03:03;;;;;;;;;;;;;;;27.55;54.13;100731.09;4975486;28;19921;-84
2022/08/01 11:05:33;;;;;;;;;;;;;;;27.52;54.46;100731.16;4993008;28;20049;-85
2022/08/01 11:08:01;;;;;;;;;;;;;;;27.58;55.00;100731.06;4992762;28;19921;-85
2022/08/01 11:10:36;;;;;;;;;;;;;;;27.59;54.07;100718.53;4990659;28;19918;-85
2022/08/01 11:13:03;;;;;;;;;;;;;;;27.57;54.76;100725.72;4993402;28;20000;-87
2022/08/01 11:15:31;;;;;;;;;;;;;;;27.55;54.97;100717.69;4989910;28;19929;-86
2022/08/01 11:17:58;;;;;;;;;;;;;;;27.56;54.76;100721.28;4970690;28;19921;-85
2022/08/01 11:20:23;;;;;;;;;;;;;;;27.57;54.44;100718.53;4988869;28;19966;-85
2022/08/01 11:23:01;;;;;;;;;;;;;;;27.63;55.28;100714.00;4988907;28;19968;-85
2022/08/01 11:25:36;;;;;;;;;;;;;;;27.61;54.66;100722.06;4983829;28;19924;-88
2022/08/01 11:28:14;;;;;;;;;;;;;;;27.56;53.51;100722.16;4984109;28;20311;-84
2022/08/01 11:30:43;;;;;;;;;;;;;;;27.50;53.56;100729.41;4978298;28;19914;-84
2022/08/01 11:33:09;;;;;;;;;;;;;;;27.56;55.58;100735.56;4984931;28;19918;-86
2022/08/01 11:35:34;;;;;;;;;;;;;;;27.59;54.80;100729.25;4964031;28;20363;-85
2022/08/01 11:38:19;;;;;;;;;;;;;;;27.64;55.46;100723.81;4962674;28;20348;-85
2022/08/01 11:40:44;;;;;;;;;;;;;;;27.63;55.62;100725.63;4991580;28;19960;-85
2022/08/01 11:43:13;;;;;;;;;;;;;;;27.67;55.35;100719.28;4973281;28;19961;-86
2022/08/01 11:45:57;;;;;;;;;;;;;;;27.67;55.63;100708.56;4983323;28;20383;-85
2022/08/01 11:48:26;;;;;;;;;;;;;;;27.66;54.76;100708.56;4983341;28;19924;-85
2022/08/01 11:50:55;;;;;;;;;;;;;;;27.64;55.86;100713.94;4990278;28;20359;-86
2022/08/01 11:53:21;;;;;;;;;;;;;;;27.65;55.67;100721.09;4966462;28;19922;-85
2022/08/01 11:55:52;;;;;;;;;;;;;;;27.69;55.91;100725.50;4972898;28;19920;-85
2022/08/01 11:58:24;;;;;;;;;;;;;;;27.66;56.23;100716.63;4956106;28;19917;-86
2022/08/01 12:00:51;;;;;;;;;;;;;;;27.71;55.93;100695.97;4956508;28;20304;-86
2022/08/01 12:03:16;;;;;;;;;;;;;;;27.70;55.88;100700.44;4990152;28;19925;-86
2022/08/01 12:05:43;;;;;;;;;;;;;;;27.71;55.56;100695.97;4977307;28;19918;-86
2022/08/01 12:08:08;;;;;;;;;;;;;;;27.73;56.45;100697.72;4993928;28;19953;-87
2022/08/01 12:10:37;;;;;;;;;;;;;;;27.74;55.66;100693.22;4954463;28;19929;-89
2022/08/01 12:13:04;;;;;;;;;;;;;;;27.73;56.07;100695.03;4974244;28;19924;-88
2022/08/01 12:15:30;;;;;;;;;;;;;;;27.77;56.20;100691.38;4973237;28;20020;-86
2022/08/01 12:17:56;;;;;;;;;;;;;;;27.74;56.48;100695.91;4977603;28;19952;-87
2022/08/01 12:20:22;;;;;;;;;;;;;;;27.76;56.34;100697.63;4974946;28;19918;-85
2022/08/01 12:22:52;;;;;;;;;;;;;;;27.77;56.41;100693.16;4975191;28;20072;-85
2022/08/01 12:25:17;;;;;;;;;;;;;;;27.78;56.15;100697.63;4954808;28;19921;-84
2022/08/01 12:27:44;;;;;;;;;;;;;;;27.78;55.88;100694.94;4975877;28;19914;-86
2022/08/01 12:30:11;;;;;;;;;;;;;;;27.75;56.35;100698.56;4957604;28;20299;-85
2022/08/01 12:32:37;;;;;;;;;;;;;;;27.75;56.03;100689.59;4976129;28;19921;-86
2022/08/01 12:35:04;;;;;;;;;;;;;;;27.79;56.26;100691.31;4986060;28;19923;-84
2022/08/01 12:37:29;;;;;;;;;;;;;;;27.79;56.12;100692.22;4970389;28;20008;-84
2022/08/01 12:39:56;;;;;;;;;;;;;;;27.76;56.46;100683.34;4973928;28;20400;-86
2022/08/01 12:42:21;;;;;;;;;;;;;;;27.73;56.20;100691.44;4973113;28;19921;-85
2022/08/01 12:44:49;;;;;;;;;;;;;;;27.79;56.07;100692.22;4991408;28;19917;-84
2022/08/01 12:47:14;;;;;;;;;;;;;;;27.76;56.93;100691.41;4974129;28;19949;-86